Tiempo atmosférico en la estación meteorológica de Candelaria, Santa Cruz de Tenerife (463 m.)



Fecha
DESCASC
Temp. máxima en grados centígrados (hora)
DESCASC
Temp. mínima en grados centígrados (hora)
DESCASC
Temp. media en grados centígrados
DESCASC
Racha de viento máxima en m/sg (hora)
DESCASC
Velocidad máxima media en intervalos de 10 minutos(hora)
DESCASC
Precipitaciones diarias en mm
DESCASC
Precipitaciones de 00:00 a 06:00 en mm
DESCASC
Precipitaciones de 06:00 a 12:00 en mm
DESCASC
Precipitaciones de 12:00 a 18:00 en mm
DESCASC
Precipitaciones de 18:00 a 24:00 en mm
DESCASC
28-02-2021 19.4 (13:00) 11.7 (00:50) 15.5 14.72 (15:10) 8.61 (15:10) 0 0 0 0 0
27-02-2021 16.7 (12:10) 11.4 (05:00) 14.1 18.06 (14:20) 11.11 (13:30) 0 0 0 0 0
26-02-2021 17.3 (15:00) 12 (06:00) 14.6 22.5 (11:30) 12.5 (12:50) 0 0 0 0 0
25-02-2021 17.7 (12:00) 11.4 (00:00) 14.6 15 (23:20) 9.44 (14:30) 0 0 0 0 0
24-02-2021 20.6 (14:30) 11.4 (00:00) 16 12.5 (23:30) 7.22 (23:20) 0 0 0 0 0
23-02-2021 18.8 (13:00) 10.8 (00:00) 14.8 7.78 (10:30) 5.56 (15:40) 0 0 0 0 0
22-02-2021 15.8 (15:00) 11.2 (00:00) 13.5 4.72 (21:00) 3.89 (21:00) 0 0 0 0 0
21-02-2021 18.7 (11:50) 12.5 (00:00) 15.6 19.17 (00:10) 10.83 (00:40) 0.6 0.6 0 0 0
20-02-2021 21.3 (18:50) 9.9 (00:00) 15.6 21.39 (22:10) 13.89 (22:00) 7 0 0 0 7
19-02-2021 19.5 (11:50) 9.8 (00:00) 14.7 7.22 (01:00) 5 (01:40) 0 0 0 0 0
18-02-2021 18.1 (13:10) 10 (00:00) 14.1 6.67 (13:20) 5.28 (02:20) 0 0 0 0 0
17-02-2021 18.7 (14:10) 10.3 (00:00) 14.5 7.5 (10:50) 4.44 (05:50) 0 0 0 0 0
16-02-2021 19.7 (12:40) 12.6 (00:00) 16.2 11.11 (10:40) 7.5 (09:50) 0 0 0 0 0
15-02-2021 23.5 (15:10) 11.6 (00:00) 17.6 9.72 (13:50) 6.67 (14:20) 0 0 0 0 0
14-02-2021 18 (12:30) 10.1 (00:00) 14.1 6.39 (13:00) 5 (05:50) 0 0 0 0 0
13-02-2021 18 (13:00) 10.8 (00:00) 14.4 8.61 (10:50) 5.28 (11:00) 0 0 0 0 0
12-02-2021 19.8 (14:10) 11.7 (00:00) 15.7 11.39 (14:20) 7.22 (14:20) 0 0 0 0 0
11-02-2021 18.1 (14:20) 11 (00:00) 14.6 6.67 (05:00) 4.72 (06:20) 0 0 0 0 0
10-02-2021 18.1 (12:00) 10.5 (00:00) 14.3 5.56 (07:40) 5 (08:00) 0 0 0 0 0
09-02-2021 17.9 (14:30) 10.9 (00:00) 14.4 5.83 (07:40) 4.17 (00:20) 0 0 0 0 0
08-02-2021 16.8 (11:20) 9.1 (00:00) 12.9 4.72 (23:20) 3.89 (23:10) 0 0 0 0 0
07-02-2021 17 (11:10) 9.7 (00:00) 13.3 5.83 (07:20) 4.72 (03:10) 0 0 0 0 0
06-02-2021 16 (14:30) 9.2 (00:00) 12.6 15.83 (01:10) 9.17 (01:00) 3 2.6 0.4 0 0
05-02-2021 12.4 (16:50) 8.2 (00:00) 10.3 18.61 (23:40) 11.11 (23:40) 30.2 4.6 2.4 6.4 16.8
04-02-2021 16.2 (12:10) 9.4 (00:00) 12.8 20.28 (14:40) 12.78 (14:40) 16.8 0 0 10.2 6.6
03-02-2021 16.5 (10:40) 10.5 (00:00) 13.5 5.28 (10:00) 3.89 (05:40) 0 0 0 0 0
02-02-2021 17.8 (14:30) 11.6 (04:50) 14.7 5 (12:20) 3.06 (12:20) 0 0 0 0 0
01-02-2021 21.3 (11:40) 14 (00:00) 17.6 8.33 (00:30) 4.72 (00:30) 0 0 0 0 0
31-01-2021 21.5 (17:50) 11.2 (00:00) 16.3 8.61 (23:40) 4.72 (23:40) 0 0 0 0 0
30-01-2021 19.9 (11:50) 12.1 (00:00) 16 6.11 (13:10) 3.61 (05:00) 0 0 0 0 0

Gráficas

Temp. máximas Temp. mínimas Temp. medias Precipitaciones Rachas de viento máximas Velocidades máximas media en intervalos de 10 minutos

Datos horarios

Fecha y hora oficial Temperatura (ºC) Velocidad del viento (km/h) Dirección del viento Racha (km/h) Dirección de racha Precipitación (mm) Presión (hPa) Tendencia (hPa) Humedad (%)
2021-02-28 23:00:00 13.6 8 Noroeste 21 Norte 0 -- -- 66
2021-02-28 22:00:00 14.1 9 Norte 23 Nordeste 0 -- -- 56
2021-02-28 21:00:00 14 7 Nordeste 30 Nordeste 0 -- -- 54
2021-02-28 20:00:00 14.9 8 Noroeste 34 Norte 0 -- -- 52
2021-02-28 19:00:00 15.2 20 Norte 41 Nordeste 0 -- -- 54
2021-02-28 18:00:00 17.2 13 Noroeste 46 Norte 0 -- -- 47
2021-02-28 17:00:00 17.6 22 Norte 48 Norte 0 -- -- 44
2021-02-28 16:00:00 18.8 18 Norte 53 Nordeste 0 -- -- 45
2021-02-28 15:00:00 18.4 27 Nordeste 51 Nordeste 0 -- -- 49
2021-02-28 14:00:00 18.5 26 Nordeste 48 Norte 0 -- -- 51
2021-02-28 13:00:00 19.4 18 Norte 52 Norte 0 -- -- 44
2021-02-28 12:00:00 17.7 26 Nordeste 41 Nordeste 0 -- -- 52
2021-02-28 11:00:00 16.4 18 Noroeste 42 Norte 0 -- -- 58
2021-02-28 10:00:00 15.4 8 Sudoeste 24 Noroeste 0 -- -- 62
2021-02-28 09:00:00 15.3 5 Nordeste 20 Noroeste 0 -- -- 56
2021-02-28 08:00:00 12.5 5 Oeste 35 Norte 0 -- -- 71
2021-02-28 07:00:00 11.7 8 Nordeste 19 Norte 0 -- -- 77
2021-02-28 06:00:00 12.1 3 Nordeste 11 Nordeste 0 -- -- 70
2021-02-28 05:00:00 12.3 5 Noroeste 14 Norte 0 -- -- 65
2021-02-28 04:00:00 12.1 4 Sudoeste 20 Noroeste 0 -- -- 65
2021-02-28 03:00:00 12.6 12 Noroeste 32 Este 0 -- -- 63
2021-02-28 02:00:00 11.9 5 Este 15 Noroeste 0 -- -- 66
2021-02-28 01:00:00 11.8 7 Noroeste 40 Nordeste 0 -- -- 67
2021-02-28 00:00:00 12.5 22 Norte 37 Norte 0 -- -- 60
2021-02-27 23:00:00 13 10 Nordeste 30 Nordeste 0 -- -- 54
2021-02-27 22:00:00 12.5 18 Norte 35 Norte 0 -- -- 51
2021-02-27 21:00:00 12.4 8 Norte 20 Noroeste 0 -- -- 53
2021-02-27 20:00:00 13.4 16 Noroeste 32 Sur 0 -- -- 50
2021-02-27 19:00:00 13.3 23 Norte 45 Norte 0 -- -- 55
2021-02-27 18:00:00 14.8 20 Norte 50 Norte 0 -- -- 48
2021-02-27 17:00:00 15.2 26 Norte 60 Norte 0 -- -- 51
2021-02-27 16:00:00 15.6 29 Nordeste 62 Norte 0 -- -- 49
2021-02-27 15:00:00 15.7 37 Nordeste 65 Norte 0 -- -- 50
2021-02-27 14:00:00 16 31 Nordeste 60 Norte 0 -- -- 50
2021-02-27 13:00:00 15 37 Norte 61 Norte 0 -- -- 55
2021-02-27 12:00:00 16.6 12 Norte 62 Nordeste 0 -- -- 45
2021-02-27 11:00:00 15.4 23 Nordeste 52 Norte 0 -- -- 51
2021-02-27 10:00:00 14.7 26 Nordeste 51 Nordeste 0 -- -- 51
2021-02-27 09:00:00 13.3 11 Norte 37 Nordeste 0 -- -- 56
2021-02-27 08:00:00 12.2 14 Nordeste 33 Norte 0 -- -- 58
2021-02-27 07:00:00 11.8 13 Nordeste 33 Norte 0 -- -- 57
2021-02-27 06:00:00 11.6 9 Nordeste 39 Nordeste 0 -- -- 58
2021-02-27 05:00:00 11.4 5 Nordeste 37 Norte 0 -- -- 63
2021-02-27 04:00:00 11.9 16 Norte 45 Norte 0 -- -- 59
2021-02-27 03:00:00 12.1 18 Nordeste 47 Nordeste 0 -- -- 62
2021-02-27 02:00:00 12.7 21 Norte 32 Nordeste 0 -- -- 62
2021-02-27 01:00:00 13 9 Noroeste 19 Noroeste 0 -- -- 59
2021-02-27 00:00:00 13.4 14 Sudeste 29 Sudeste 0 -- -- 62
2021-02-26 23:00:00 13.3 11 Sur 27 Sur 0 -- -- 64
2021-02-26 22:00:00 13.3 9 Sudoeste 25 Oeste 0 -- -- 63
2021-02-26 21:00:00 13.3 11 Sudoeste 27 Sudoeste 0 -- -- 58
2021-02-26 20:00:00 13.2 10 Sudoeste 25 Norte 0 -- -- 67
2021-02-26 19:00:00 13.6 16 Sur 38 Sur 0 -- -- 60
2021-02-26 18:00:00 14.6 10 Sur 45 Sudeste 0 -- -- 59
2021-02-26 17:00:00 15.5 29 Nordeste 57 Nordeste 0 -- -- 52
2021-02-26 16:00:00 16.2 26 Nordeste 66 Nordeste 0 -- -- 50
2021-02-26 15:00:00 17.3 29 Nordeste 71 Nordeste 0 -- -- 43
2021-02-26 14:00:00 16.8 33 Nordeste 68 Nordeste 0 -- -- 45
2021-02-26 13:00:00 16.5 39 Nordeste 75 Nordeste 0 -- -- 51
2021-02-26 12:00:00 16.7 35 Nordeste 81 Nordeste 0 -- -- 52
2021-02-26 11:00:00 16 22 Nordeste 61 Nordeste 0 -- -- 53
2021-02-26 10:00:00 15.7 22 Norte 62 Norte 0 -- -- 55
2021-02-26 09:00:00 14.3 17 Noroeste 51 Oeste 0 -- -- 59
2021-02-26 08:00:00 12.2 10 Sudoeste 55 Norte 0 -- -- 65
2021-02-26 07:00:00 12.2 11 Oeste 68 Nordeste 0 -- -- 59
2021-02-26 06:00:00 12 13 Noroeste 47 Norte 0 -- -- 68
2021-02-26 05:00:00 12.3 12 Nordeste 45 Norte 0 -- -- 59
2021-02-26 04:00:00 12.4 14 Oeste 44 Norte 0 -- -- 68
2021-02-26 03:00:00 12.3 17 Oeste 39 Nordeste 0 -- -- 65
2021-02-26 02:00:00 12.2 13 Oeste 35 Sudoeste 0 -- -- 64
2021-02-26 01:00:00 12.2 13 Sur 40 Norte 0 -- -- 62
2021-02-26 00:00:00 12.4 13 Oeste 54 Norte 0 -- -- 58
2021-02-25 23:00:00 12.7 10 Sur 39 Nordeste 0 -- -- 63
2021-02-25 22:00:00 12.7 11 Oeste 32 Sudoeste 0 -- -- 62
2021-02-25 21:00:00 13 7 Sudeste 32 Sur 0 -- -- 69
2021-02-25 20:00:00 13.3 14 Sudeste 39 Sudeste 0 -- -- 70
2021-02-25 19:00:00 13.8 19 Sudeste 39 Sudeste 0 -- -- 72
2021-02-25 18:00:00 15.9 9 Noroeste 28 Noroeste 0 -- -- 70
2021-02-25 17:00:00 16.9 18 Noroeste 41 Sudeste 0 -- -- 70
2021-02-25 16:00:00 16.7 30 Sudeste 50 Sudeste 0 -- -- 69
2021-02-25 15:00:00 15.9 33 Sudeste 53 Sudeste 0 -- -- 72
2021-02-25 14:00:00 16.1 30 Sudeste 42 Sudeste 0 -- -- 79
2021-02-25 13:00:00 16 18 Sudeste 37 Sudeste 0 -- -- 91
2021-02-25 12:00:00 17.7 24 Sudeste 36 Sudeste 0 -- -- 75
2021-02-25 11:00:00 16 12 Sudeste 22 Sudeste 0 -- -- 83
2021-02-25 10:00:00 15.1 12 Sudeste 22 Sudeste 0 -- -- 86
2021-02-25 09:00:00 14.7 5 Sudoeste 12 Sur 0 -- -- 85
2021-02-25 08:00:00 13.4 3 Este 15 Sudeste 0 -- -- 87
2021-02-25 07:00:00 12.7 8 Sudoeste 15 Norte 0 -- -- 86
2021-02-25 06:00:00 12.4 9 Nordeste 17 Sur 0 -- -- 70
2021-02-25 05:00:00 11.4 10 Norte 16 Norte 0 -- -- 71
2021-02-25 04:00:00 12.4 11 Norte 15 Norte 0 -- -- 66
2021-02-25 03:00:00 12.6 9 Norte 14 Norte 0 -- -- 71
2021-02-25 02:00:00 13.5 13 Norte 18 Nordeste 0 -- -- 61
2021-02-25 01:00:00 14.4 14 Norte 27 Norte 0 -- -- 54
2021-02-25 00:00:00 15.5 17 Norte 45 Norte 0 -- -- 56
2021-02-24 23:00:00 15.3 17 Nordeste 35 Norte 0 -- -- 63
2021-02-24 22:00:00 13.5 7 Nordeste 16 Noroeste 0 -- -- 69
2021-02-24 21:00:00 14.4 11 Noroeste 16 Norte 0 -- -- 65
2021-02-24 20:00:00 14.5 6 Norte 18 Norte 0 -- -- 71
2021-02-24 19:00:00 15.7 10 Noroeste 19 Noroeste 0 -- -- 74
2021-02-24 18:00:00 16.7 16 Noroeste 22 Noroeste 0 -- -- 75
2021-02-24 17:00:00 16.4 9 Sur 27 Sur 0 -- -- 78
2021-02-24 16:00:00 18.3 20 Sudeste 37 Sudeste 0 -- -- 67
2021-02-24 15:00:00 19.9 20 Sur 33 Sudeste 0 -- -- 52
2021-02-24 14:00:00 20.2 13 Sur 38 Sudeste 0 -- -- 49
2021-02-24 13:00:00 19.7 20 Sur 37 Sur 0 -- -- 52
2021-02-24 12:00:00 19.6 20 Sur 35 Sur 0 -- -- 52
2021-02-24 11:00:00 18.8 15 Sudeste 29 Oeste 0 -- -- 58
2021-02-24 10:00:00 16.5 8 Noroeste 19 Noroeste 0 -- -- 64
2021-02-24 09:00:00 15.2 3 Sudoeste 19 Noroeste 0 -- -- 71
2021-02-24 08:00:00 11.8 12 Norte 20 Noroeste 0 -- -- 79
2021-02-24 07:00:00 11.5 13 Norte 18 Norte 0 -- -- 83
2021-02-24 06:00:00 11.7 13 Norte 19 Norte 0 -- -- 82
2021-02-24 05:00:00 12.3 13 Norte 21 Noroeste 0 -- -- 81
2021-02-24 04:00:00 11.9 11 Norte 19 Noroeste 0 -- -- 81
2021-02-24 03:00:00 12 13 Norte 19 Norte 0 -- -- 82
2021-02-24 02:00:00 11.7 13 Norte 17 Norte 0 -- -- 81
2021-02-24 01:00:00 12.1 13 Norte 17 Norte 0 -- -- 79
2021-02-24 00:00:00 11.7 13 Norte 15 Norte 0 -- -- 82
2021-02-23 23:00:00 12.3 12 Norte 15 Norte 0 -- -- 80
2021-02-23 22:00:00 12.6 10 Norte 17 Nordeste 0 -- -- 80
2021-02-23 21:00:00 13.7 12 Norte 19 Nordeste 0 -- -- 79
2021-02-23 20:00:00 14.7 5 Sudeste 17 Sudeste 0 -- -- 78
2021-02-23 19:00:00 14.9 10 Sudeste 17 Sudeste 0 -- -- 77
2021-02-23 18:00:00 15.3 11 Sudeste 19 Sudeste 0 -- -- 77
2021-02-23 17:00:00 16.1 14 Sudeste 26 Sudeste 0 -- -- 72
2021-02-23 16:00:00 16.9 19 Sudeste 27 Sudeste 0 -- -- 73
2021-02-23 15:00:00 18.2 17 Sudeste 28 Sudeste 0 -- -- 65
2021-02-23 14:00:00 18.6 18 Sudeste 26 Sudeste 0 -- -- 55
2021-02-23 13:00:00 18.8 16 Sudeste 26 Sudeste 0 -- -- 56
2021-02-23 12:00:00 18.1 15 Sur 27 Sudeste 0 -- -- 67
2021-02-23 11:00:00 17 15 Sudeste 28 Sudeste 0 -- -- 61
2021-02-23 10:00:00 17.8 12 Sudeste 22 Sudeste 0 -- -- 66
2021-02-23 09:00:00 16.6 13 Sudeste 26 Sudeste 0 -- -- 66
2021-02-23 08:00:00 12.7 9 Nordeste 21 Norte 0 -- -- 73
2021-02-23 07:00:00 12 13 Nordeste 19 Nordeste 0 -- -- 72
2021-02-23 06:00:00 11.1 17 Norte 19 Norte 0 -- -- 76
2021-02-23 05:00:00 11.4 14 Norte 22 Norte 0 -- -- 73
2021-02-23 04:00:00 11.3 9 Norte 15 Norte 0 -- -- 73
2021-02-23 03:00:00 11.6 7 Nordeste 15 Norte 0 -- -- 77
2021-02-23 02:00:00 11.8 9 Norte 16 Noroeste 0 -- -- 78
2021-02-23 01:00:00 11.3 8 Noroeste 11 Norte 0 -- -- 92
2021-02-23 00:00:00 11.2 8 Norte 12 Norte 0 -- -- 88
2021-02-22 23:00:00 11.5 11 Norte 13 Norte 0 -- -- 87
2021-02-22 22:00:00 12.1 5 Nordeste 13 Norte 0 -- -- 88
2021-02-22 21:00:00 12.5 14 Norte 17 Nordeste 0 -- -- 87
2021-02-22 20:00:00 13.9 4 Nordeste 9 Norte 0 -- -- 86
2021-02-22 19:00:00 14.8 2 Sudoeste 6 Sur 0 -- -- 89
2021-02-22 18:00:00 15.2 2 Sudeste 8 Sur 0 -- -- 88
2021-02-22 17:00:00 15.1 4 Sudeste 11 Sudeste 0 -- -- 88
2021-02-22 16:00:00 15.4 6 Sudeste 12 Sudeste 0 -- -- 86
2021-02-22 15:00:00 15.8 4 Sudeste 9 Sur 0 -- -- 84
2021-02-22 14:00:00 15.2 2 Oeste 8 Sur 0 -- -- 84
2021-02-22 13:00:00 14.9 4 Sudeste 9 Sudeste 0 -- -- 85
2021-02-22 12:00:00 15 6 Sudeste 12 Sur 0 -- -- 84
2021-02-22 11:00:00 15.6 9 Sur 15 Sudoeste 0 -- -- 80
2021-02-22 10:00:00 14.6 3 Sur 6 Sur 0 -- -- 83
2021-02-22 09:00:00 13.7 2 Sudoeste 8 Norte 0 -- -- 85
2021-02-22 08:00:00 12.6 6 Norte 9 Norte 0 -- -- 89
2021-02-22 07:00:00 11.7 6 Norte 8 Nordeste 0 -- -- 89
2021-02-22 06:00:00 12.9 4 Nordeste 10 Nordeste 0 -- -- 85
2021-02-22 05:00:00 12.5 4 Norte 12 Norte 0 -- -- 88
2021-02-22 04:00:00 12 9 Norte 13 Norte 0 -- -- 89
2021-02-22 03:00:00 11.9 7 Norte 12 Noroeste 0 -- -- 87
2021-02-22 02:00:00 11.9 6 Norte 11 Nordeste 0 -- -- 86
2021-02-22 01:00:00 12.4 8 Nordeste 11 Este 0 -- -- 84
2021-02-22 00:00:00 12.7 5 Este 11 Nordeste 0 -- -- 81
2021-02-21 23:00:00 12.8 9 Nordeste 18 Nordeste 0 -- -- 76
2021-02-21 22:00:00 12.6 14 Norte 16 Norte 0 -- -- 81
2021-02-21 21:00:00 13.3 11 Nordeste 19 Nordeste 0 -- -- 78
2021-02-21 20:00:00 14 3 Sur 8 Sudoeste 0 -- -- 78
2021-02-21 19:00:00 14.9 0 Calma 19 Sudoeste 0 -- -- 74
2021-02-21 18:00:00 15.6 12 Sudoeste 19 Sudoeste 0 -- -- 71
2021-02-21 17:00:00 16.4 10 Oeste 22 Oeste 0 -- -- 71
2021-02-21 16:00:00 16.5 11 Sudoeste 30 Sudoeste 0 -- -- 69
2021-02-21 15:00:00 17.1 18 Sudoeste 31 Sudoeste 0 -- -- 66
2021-02-21 14:00:00 16.7 15 Sudeste 27 Este 0 -- -- 66
2021-02-21 13:00:00 17.4 13 Sur 29 Sudoeste 0 -- -- 62
2021-02-21 12:00:00 18.3 9 Sur 28 Sudoeste 0 -- -- 61
2021-02-21 11:00:00 18.5 12 Sur 30 Sur 0 -- -- 61
2021-02-21 10:00:00 17.5 10 Sur 16 Sur 0 -- -- 64
2021-02-21 09:00:00 15.7 9 Oeste 41 Norte 0 -- -- 59
2021-02-21 08:00:00 13.9 15 Norte 45 Norte 0 -- -- 61
2021-02-21 07:00:00 13.7 20 Norte 46 Norte 0 -- -- 62
2021-02-21 06:00:00 13.4 14 Norte 50 Norte 0 -- -- 67
2021-02-21 05:00:00 13.4 27 Norte 53 Norte 0 -- -- 74
2021-02-21 04:00:00 13.8 15 Nordeste 49 Norte 0 -- -- 76
2021-02-21 03:00:00 14.7 21 Noroeste 54 Norte 0.2 -- -- 68
2021-02-21 02:00:00 14.6 23 Norte 44 Norte 0 -- -- 75
2021-02-21 01:00:00 15.4 26 Norte 69 Norte 0.4 -- -- 72
2021-02-21 00:00:00 15.4 33 Norte 66 Norte 1 -- -- 76
2021-02-20 23:00:00 15.2 42 Norte 77 Norte 2.8 -- -- 79
2021-02-20 22:00:00 16.2 50 Norte 76 Norte 1.2 -- -- 78
2021-02-20 21:00:00 17.1 35 Norte 75 Norte 1.8 -- -- 80
2021-02-20 20:00:00 19 29 Norte 70 Norte 0.2 -- -- 66
2021-02-20 19:00:00 21.1 30 Norte 59 Norte 0 -- -- 51
2021-02-20 18:00:00 20.3 27 Norte 47 Norte 0 -- -- 56
2021-02-20 17:00:00 17.8 4 Sudeste 23 Sudeste 0 -- -- 69
2021-02-20 16:00:00 18.2 7 Sudeste 15 Sudeste 0 -- -- 63
2021-02-20 15:00:00 18 9 Sudeste 25 Sudeste 0 -- -- 57
2021-02-20 14:00:00 19.6 9 Sudeste 19 Sudeste 0 -- -- 50
2021-02-20 13:00:00 19.4 8 Sur 14 Sur 0 -- -- 59
2021-02-20 12:00:00 17.8 5 Sudeste 14 Sudeste 0 -- -- 64
2021-02-20 11:00:00 15.7 0 Calma 11 Sur 0 -- -- 75
2021-02-20 10:00:00 16 4 Sudeste 12 Sur 0 -- -- 73
2021-02-20 09:00:00 14.4 0 Calma 10 Noroeste 0 -- -- 76
2021-02-20 08:00:00 11.4 10 Noroeste 15 Noroeste 0 -- -- 84
2021-02-20 07:00:00 11.3 6 Nordeste 11 Nordeste 0 -- -- 82
2021-02-20 06:00:00 9.9 10 Nordeste 14 Norte 0 -- -- 74
2021-02-20 05:00:00 10 10 Nordeste 14 Norte 0 -- -- 74
2021-02-20 04:00:00 10.4 7 Norte 11 Norte 0 -- -- 66
2021-02-20 03:00:00 10.5 8 Nordeste 13 Norte 0 -- -- 67
2021-02-20 02:00:00 10.5 7 Nordeste 12 Nordeste 0 -- -- 72
2021-02-20 01:00:00 10.7 6 Nordeste 10 Norte 0 -- -- 69
2021-02-20 00:00:00 11.2 8 Norte 13 Norte 0 -- -- 72
2021-02-19 23:00:00 11.6 7 Norte 12 Norte 0 -- -- 75
2021-02-19 22:00:00 12.2 4 Norte 6 Norte 0 -- -- 78
2021-02-19 21:00:00 13.1 3 Este 9 Norte 0 -- -- 79
2021-02-19 20:00:00 14 3 Norte 6 Norte 0 -- -- 78
2021-02-19 19:00:00 15.3 0 Calma 6 Sudeste 0 -- -- 74
2021-02-19 18:00:00 16.6 4 Sur 10 Sur 0 -- -- 70
2021-02-19 17:00:00 17.8 7 Sur 12 Sur 0 -- -- 64
2021-02-19 16:00:00 18.8 5 Sudoeste 14 Sur 0 -- -- 60
2021-02-19 15:00:00 19.1 7 Sur 17 Sur 0 -- -- 55
2021-02-19 14:00:00 19.1 9 Sur 17 Sur 0 -- -- 56
2021-02-19 13:00:00 19.1 9 Sur 16 Sur 0 -- -- 53
2021-02-19 12:00:00 19.4 11 Sur 16 Sur 0 -- -- 52
2021-02-19 11:00:00 18.2 5 Sudeste 13 Sudoeste 0 -- -- 56
2021-02-19 10:00:00 17.7 6 Sudoeste 11 Sudoeste 0 -- -- 39
2021-02-19 09:00:00 15.5 2 Sur 12 Norte 0 -- -- 32
2021-02-19 08:00:00 10.1 10 Norte 15 Norte 0 -- -- 47
2021-02-19 07:00:00 10.5 8 Noroeste 12 Noroeste 0 -- -- 46
2021-02-19 06:00:00 11.4 6 Norte 13 Norte 0 -- -- 37
2021-02-19 05:00:00 13 10 Nordeste 21 Norte 0 -- -- 30
2021-02-19 04:00:00 13.3 17 Nordeste 20 Norte 0 -- -- 29
2021-02-19 03:00:00 12.8 15 Nordeste 21 Norte 0 -- -- 31
2021-02-19 02:00:00 12.4 17 Norte 23 Norte 0 -- -- 32
2021-02-19 01:00:00 12.6 18 Norte 26 Norte 0 -- -- 33
2021-02-19 00:00:00 11.9 9 Norte 15 Norte 0 -- -- 38
2021-02-18 23:00:00 11.4 9 Norte 13 Norte 0 -- -- 49
2021-02-18 22:00:00 11.4 8 Norte 12 Norte 0 -- -- 77
2021-02-18 21:00:00 12.1 11 Norte 14 Norte 0 -- -- 79
2021-02-18 20:00:00 13.2 8 Norte 11 Norte 0 -- -- 82
2021-02-18 19:00:00 14.7 0 Calma 13 Sudeste 0 -- -- 78
2021-02-18 18:00:00 15 9 Sudeste 18 Sudeste 0 -- -- 78
2021-02-18 17:00:00 16 12 Sudeste 22 Sudeste 0 -- -- 75
2021-02-18 16:00:00 16.9 15 Sudeste 24 Sudeste 0 -- -- 68
2021-02-18 15:00:00 17.5 15 Sudeste 23 Sudeste 0 -- -- 66
2021-02-18 14:00:00 17.7 13 Sur 24 Sudeste 0 -- -- 63
2021-02-18 13:00:00 18 12 Sudeste 22 Sur 0 -- -- 52
2021-02-18 12:00:00 17 14 Sur 20 Sudeste 0 -- -- 65
2021-02-18 11:00:00 15.7 9 Sudeste 15 Sudeste 0 -- -- 63
2021-02-18 10:00:00 17 6 Sur 13 Sudeste 0 -- -- 47
2021-02-18 09:00:00 14.5 4 Sudeste 10 Norte 0 -- -- 55
2021-02-18 08:00:00 10.4 8 Norte 13 Norte 0 -- -- 42
2021-02-18 07:00:00 10.6 3 Noroeste 13 Norte 0 -- -- 45
2021-02-18 06:00:00 10.3 8 Norte 12 Norte 0 -- -- 46
2021-02-18 05:00:00 10.5 8 Norte 14 Este 0 -- -- 46
2021-02-18 04:00:00 11 4 Este 11 Nordeste 0 -- -- 41
2021-02-18 03:00:00 12.1 7 Este 22 Norte 0 -- -- 30
2021-02-18 02:00:00 10.6 12 Norte 16 Norte 0 -- -- 41
2021-02-18 01:00:00 10.9 6 Nordeste 14 Norte 0 -- -- 53
2021-02-18 00:00:00 10.3 10 Norte 13 Norte 0 -- -- 60
2021-02-17 23:00:00 11 9 Norte 14 Nordeste 0 -- -- 70
2021-02-17 22:00:00 11.5 8 Nordeste 13 Nordeste 0 -- -- 68
2021-02-17 21:00:00 12.3 9 Norte 13 Norte 0 -- -- 72
2021-02-17 20:00:00 13.7 4 Nordeste 19 Sudeste 0 -- -- 69
2021-02-17 19:00:00 14.6 7 Sudeste 12 Sudeste 0 -- -- 62
2021-02-17 18:00:00 15.9 5 Sur 10 Sudeste 0 -- -- 52
2021-02-17 17:00:00 17.2 8 Sur 22 Sur 0 -- -- 48
2021-02-17 16:00:00 18.1 11 Sur 19 Sudeste 0 -- -- 46
2021-02-17 15:00:00 18.3 10 Sur 19 Sur 0 -- -- 44
2021-02-17 14:00:00 18.6 8 Sur 18 Sur 0 -- -- 45
2021-02-17 13:00:00 17.8 11 Sur 22 Sudeste 0 -- -- 49
2021-02-17 12:00:00 17.8 14 Sudeste 24 Sudeste 0 -- -- 49
2021-02-17 11:00:00 17.3 15 Sudeste 27 Sur 0 -- -- 48
2021-02-17 10:00:00 17.1 10 Sur 19 Sudeste 0 -- -- 42
2021-02-17 09:00:00 16.2 5 Sudeste 19 Norte 0 -- -- 36
2021-02-17 08:00:00 13.1 13 Nordeste 21 Norte 0 -- -- 37
2021-02-17 07:00:00 13.7 12 Nordeste 21 Nordeste 0 -- -- 38
2021-02-17 06:00:00 13.6 14 Nordeste 23 Norte 0 -- -- 41
2021-02-17 05:00:00 14.5 9 Norte 27 Este 0 -- -- 40
2021-02-17 04:00:00 13.2 15 Nordeste 21 Norte 0 -- -- 46
2021-02-17 03:00:00 13.8 5 Nordeste 18 Sudoeste 0 -- -- 43
2021-02-17 02:00:00 13.7 9 Nordeste 18 Norte 0 -- -- 32
2021-02-17 01:00:00 12.9 10 Norte 16 Norte 0 -- -- 34
2021-02-17 00:00:00 13.5 13 Norte 23 Norte 0 -- -- 36
2021-02-16 23:00:00 13.2 14 Nordeste 19 Nordeste 0 -- -- 39
2021-02-16 22:00:00 12.8 13 Norte 18 Nordeste 0 -- -- 42
2021-02-16 21:00:00 13.8 13 Nordeste 21 Nordeste 0 -- -- 40
2021-02-16 20:00:00 14.4 5 Este 17 Nordeste 0 -- -- 44
2021-02-16 19:00:00 14.5 3 Este 22 Sudeste 0 -- -- 60
2021-02-16 18:00:00 15.4 12 Sudeste 21 Sudeste 0 -- -- 63
2021-02-16 17:00:00 16.7 11 Sudeste 22 Sudeste 0 -- -- 59
2021-02-16 16:00:00 17.9 13 Sudeste 22 Sudeste 0 -- -- 53
2021-02-16 15:00:00 18.9 13 Sudeste 22 Sur 0 -- -- 47
2021-02-16 14:00:00 19.2 14 Sudoeste 33 Sudoeste 0 -- -- 38
2021-02-16 13:00:00 19.5 23 Sudoeste 37 Sudoeste 0 -- -- 36
2021-02-16 12:00:00 19.2 22 Sudoeste 37 Sudoeste 0 -- -- 32
2021-02-16 11:00:00 19.2 24 Sudoeste 40 Sudoeste 0 -- -- 31
2021-02-16 10:00:00 18.7 23 Oeste 40 Sudoeste 0 -- -- 29
2021-02-16 09:00:00 16.6 9 Nordeste 22 Norte 0 -- -- 38
2021-02-16 08:00:00 14.6 15 Norte 22 Norte 0 -- -- 38
2021-02-16 07:00:00 15.2 14 Norte 24 Este 0 -- -- 33
2021-02-16 06:00:00 17.4 12 Este 27 Nordeste 0 -- -- 31
2021-02-16 05:00:00 17.2 15 Este 24 Este 0 -- -- 35
2021-02-16 04:00:00 16.4 11 Nordeste 17 Norte 0 -- -- 30
2021-02-16 03:00:00 16.1 12 Norte 19 Norte 0 -- -- 30
2021-02-16 02:00:00 15.8 16 Norte 20 Norte 0 -- -- 32
2021-02-16 01:00:00 16.8 13 Nordeste 18 Norte 0 -- -- 31
2021-02-16 00:00:00 15.3 5 Nordeste 15 Norte 0 -- -- 38
2021-02-15 23:00:00 16.2 8 Norte 17 Noroeste 0 -- -- 35
2021-02-15 22:00:00 18.3 8 Este 24 Norte 0 -- -- 29
2021-02-15 21:00:00 17.8 18 Norte 25 Norte 0 -- -- 27
2021-02-15 20:00:00 18.1 21 Norte 25 Nordeste 0 -- -- 31
2021-02-15 19:00:00 18.6 13 Nordeste 20 Norte 0 -- -- 34
2021-02-15 18:00:00 21.9 5 Sudoeste 11 Sudoeste 0 -- -- 36
2021-02-15 17:00:00 22.9 9 Sur 28 Sudoeste 0 -- -- 32
2021-02-15 16:00:00 23.4 14 Sudoeste 31 Sudoeste 0 -- -- 21
2021-02-15 15:00:00 23.4 18 Sudoeste 34 Sudoeste 0 -- -- 23
2021-02-15 14:00:00 23.1 15 Sudoeste 35 Oeste 0 -- -- 31
2021-02-15 13:00:00 22.5 14 Sudoeste 26 Oeste 0 -- -- 41
2021-02-15 12:00:00 20.4 9 Sudeste 15 Sudeste 0 -- -- 60
2021-02-15 11:00:00 20.2 5 Sudeste 10 Sudeste 0 -- -- 66
2021-02-15 10:00:00 20.2 4 Sur 9 Sur 0 -- -- 55
2021-02-15 09:00:00 17.5 2 Nordeste 14 Norte 0 -- -- 56
2021-02-15 08:00:00 14.6 7 Norte 24 Norte 0 -- -- 41
2021-02-15 07:00:00 15.3 22 Norte 25 Norte 0 -- -- 35
2021-02-15 06:00:00 12.4 2 Este 22 Nordeste 0 -- -- 91
2021-02-15 05:00:00 11.6 4 Norte 6 Norte 0 -- -- 91
2021-02-15 04:00:00 12.2 3 Este 10 Norte 0 -- -- 74
2021-02-15 03:00:00 13.9 6 Este 24 Norte 0 -- -- 84
2021-02-15 02:00:00 15.3 18 Norte 20 Norte 0 -- -- 32
2021-02-15 01:00:00 15.3 9 Norte 16 Norte 0 -- -- 32
2021-02-15 00:00:00 12.9 6 Norte 10 Norte 0 -- -- 42
2021-02-14 23:00:00 11.9 4 Noroeste 9 Norte 0 -- -- 50
2021-02-14 22:00:00 11.9 5 Norte 9 Norte 0 -- -- 53
2021-02-14 21:00:00 12.5 3 Norte 6 Norte 0 -- -- 91
2021-02-14 20:00:00 13.8 2 Sudeste 11 Norte 0 -- -- 91
2021-02-14 19:00:00 14.1 8 Norte 10 Norte 0 -- -- 62
2021-02-14 18:00:00 15.4 5 Sudeste 8 Sudeste 0 -- -- 85
2021-02-14 17:00:00 17.3 4 Sudeste 13 Sur 0 -- -- 78
2021-02-14 16:00:00 17.6 8 Sudeste 17 Sudeste 0 -- -- 77
2021-02-14 15:00:00 17.5 11 Sudeste 19 Sur 0 -- -- 76
2021-02-14 14:00:00 17.5 11 Sudeste 20 Sudeste 0 -- -- 76
2021-02-14 13:00:00 17.7 12 Sudeste 23 Sudeste 0 -- -- 75
2021-02-14 12:00:00 17.5 12 Sudeste 19 Sur 0 -- -- 75
2021-02-14 11:00:00 17.4 7 Sur 13 Sudeste 0 -- -- 71
2021-02-14 10:00:00 16.7 5 Sur 9 Sur 0 -- -- 69
2021-02-14 09:00:00 15.4 3 Sur 8 Sur 0 -- -- 73
2021-02-14 08:00:00 11.1 0 Calma 8 Sudeste 0 -- -- 83
2021-02-14 07:00:00 14 17 Nordeste 21 Norte 0 -- -- 50
2021-02-14 06:00:00 13.5 17 Nordeste 22 Norte 0 -- -- 43
2021-02-14 05:00:00 11.2 4 Oeste 12 Norte 0 -- -- 63
2021-02-14 04:00:00 12.1 5 Nordeste 15 Norte 0 -- -- 54
2021-02-14 03:00:00 10.4 3 Norte 8 Nordeste 0 -- -- 59
2021-02-14 02:00:00 11.2 7 Nordeste 12 Norte 0 -- -- 59
2021-02-14 01:00:00 11.4 2 Este 13 Norte 0 -- -- 67
2021-02-14 00:00:00 11.3 4 Nordeste 14 Noroeste 0 -- -- 86
2021-02-13 23:00:00 11.7 7 Noroeste 13 Noroeste 0 -- -- 86
2021-02-13 22:00:00 11.5 3 Noroeste 8 Norte 0 -- -- 87
2021-02-13 21:00:00 12.3 3 Norte 12 Noroeste 0 -- -- 86
2021-02-13 20:00:00 13.7 12 Noroeste 17 Norte 0 -- -- 84
2021-02-13 19:00:00 14.5 5 Noroeste 11 Sudeste 0 -- -- 85
2021-02-13 18:00:00 15.3 5 Sudeste 18 Sur 0 -- -- 82
2021-02-13 17:00:00 16.5 11 Sudeste 21 Sudeste 0 -- -- 78
2021-02-13 16:00:00 17 13 Sudeste 23 Sudeste 0 -- -- 77
2021-02-13 15:00:00 17.5 15 Sudeste 27 Sudeste 0 -- -- 75
2021-02-13 14:00:00 17.4 16 Sudeste 26 Sudeste 0 -- -- 76
2021-02-13 13:00:00 18 18 Sudeste 29 Sudeste 0 -- -- 73
2021-02-13 12:00:00 17.5 17 Sudeste 29 Sudeste 0 -- -- 73
2021-02-13 07:00:00 -- -- -- -- -- -- -- -- --
2021-02-13 06:00:00 -- -- -- -- -- -- -- -- --
2021-02-13 05:00:00 -- -- -- -- -- -- -- -- --
2021-02-13 04:00:00 11.4 8 Norte 15 Norte 0 -- -- 80
2021-02-13 03:00:00 12.1 13 Norte 18 Noroeste 0 -- -- 77
2021-02-13 02:00:00 12.4 12 Norte 15 Norte 0 -- -- 76
2021-02-13 01:00:00 12.8 12 Norte 17 Noroeste 0 -- -- 76
2021-02-13 00:00:00 12.6 11 Norte 14 Norte 0 -- -- 79
2021-02-12 23:00:00 13.6 10 Norte 16 Noroeste 0 -- -- 76
2021-02-12 22:00:00 13.7 10 Norte 19 Noroeste 0 -- -- 76
2021-02-12 21:00:00 13.8 12 Noroeste 20 Norte 0 -- -- 77
2021-02-12 20:00:00 13.2 8 Norte 14 Norte 0 -- -- 80
2021-02-12 19:00:00 15 4 Noroeste 16 Noroeste 0 -- -- 78
2021-02-12 18:00:00 15.9 5 Este 32 Sudeste 0 -- -- 77
2021-02-12 17:00:00 16.1 19 Sudeste 38 Sudeste 0 -- -- 79
2021-02-12 16:00:00 17.2 23 Sudeste 40 Sur 0 -- -- 78
2021-02-12 15:00:00 18.1 21 Sur 41 Sudeste 0 -- -- 61
2021-02-12 14:00:00 19.3 23 Sudeste 37 Sudeste 0 -- -- 58
2021-02-12 13:00:00 18.4 17 Sudeste 31 Sudeste 0 -- -- 69
2021-02-12 12:00:00 18.7 18 Sudeste 30 Sur 0 -- -- 66
2021-02-12 11:00:00 18 19 Sudeste 36 Sudeste 0 -- -- 68
2021-02-12 10:00:00 17.1 12 Sudeste 19 Sur 0 -- -- 73
2021-02-12 09:00:00 14.1 4 Norte 20 Norte 0 -- -- 67
2021-02-12 08:00:00 11.9 13 Nordeste 23 Nordeste 0 -- -- 65
2021-02-12 07:00:00 12.6 14 Nordeste 22 Nordeste 0 -- -- 70
2021-02-12 06:00:00 12.8 12 Este 22 Sudeste 0 -- -- 68
2021-02-12 05:00:00 13 6 Nordeste 24 Este 0 -- -- 71
2021-02-12 04:00:00 12.7 10 Norte 13 Norte 0 -- -- 77
2021-02-12 03:00:00 13.5 5 Nordeste 21 Este 0 -- -- 74
2021-02-12 02:00:00 13.5 10 Nordeste 19 Norte 0 -- -- 73
2021-02-12 01:00:00 12.5 13 Norte 21 Nordeste 0 -- -- 74
2021-02-12 00:00:00 12.8 13 Norte 17 Norte 0 -- -- 73
2021-02-11 23:00:00 13.8 8 Noroeste 19 Norte 0 -- -- 72
2021-02-11 22:00:00 12.3 10 Norte 17 Norte 0 -- -- 77
2021-02-11 21:00:00 12.3 13 Norte 16 Norte 0 -- -- 80
2021-02-11 20:00:00 13.2 10 Norte 15 Norte 0 -- -- 80
2021-02-11 19:00:00 13.8 9 Norte 12 Norte 0 -- -- 84
2021-02-11 18:00:00 15.6 2 Sudoeste 7 Sudoeste 0 -- -- 76
2021-02-11 17:00:00 16.3 5 Sudoeste 14 Sudoeste 0 -- -- 74
2021-02-11 16:00:00 17 8 Sudoeste 13 Sudoeste 0 -- -- 72
2021-02-11 15:00:00 16.5 5 Sur 18 Sudoeste 0 -- -- 73
2021-02-11 14:00:00 17.6 8 Sur 16 Sur 0 -- -- 68
2021-02-11 13:00:00 16.8 5 Sudeste 15 Sur 0 -- -- 72
2021-02-11 12:00:00 16.8 7 Sur 16 Sur 0 -- -- 70
2021-02-11 11:00:00 17.5 9 Sur 15 Sur 0 -- -- 67
2021-02-11 10:00:00 16.9 6 Sudoeste 13 Sur 0 -- -- 64
2021-02-11 09:00:00 15.2 3 Noroeste 17 Norte 0 -- -- 70
2021-02-11 08:00:00 11.7 14 Norte 18 Norte 0 -- -- 80
2021-02-11 07:00:00 11.1 14 Norte 19 Norte 0 -- -- 83
2021-02-11 06:00:00 11.1 15 Norte 19 Norte 0 -- -- 81
2021-02-11 05:00:00 11.4 17 Norte 24 Norte 0 -- -- 82
2021-02-11 04:00:00 12.3 14 Norte 19 Norte 0 -- -- 78
2021-02-11 03:00:00 12.7 13 Norte 15 Norte 0 -- -- 78
2021-02-11 02:00:00 13.2 9 Norte 14 Norte 0 -- -- 76
2021-02-11 01:00:00 13.7 9 Norte 17 Nordeste 0 -- -- 74
2021-02-11 00:00:00 14 11 Nordeste 15 Norte 0 -- -- 73
2021-02-10 23:00:00 14.5 0 Calma 3 Norte 0 -- -- 85
2021-02-10 22:00:00 14.6 0 Calma 0 Calma 0 -- -- 85
2021-02-10 21:00:00 14.7 0 Calma 3 Sudeste 0 -- -- 84
2021-02-10 20:00:00 14.8 2 Sur 5 Sur 0 -- -- 84
2021-02-10 19:00:00 14.9 4 Sudeste 6 Sur 0 -- -- 83
2021-02-10 18:00:00 15.3 4 Sur 8 Sudeste 0 -- -- 80
2021-02-10 17:00:00 15.8 5 Sur 10 Sur 0 -- -- 78
2021-02-10 16:00:00 16.1 5 Sur 13 Sudeste 0 -- -- 77
2021-02-10 15:00:00 16.6 6 Sur 16 Sur 0 -- -- 73
2021-02-10 14:00:00 16.8 7 Sur 13 Sur 0 -- -- 71
2021-02-10 13:00:00 16.9 7 Sur 15 Sur 0 -- -- 71
2021-02-10 12:00:00 18.1 10 Sur 17 Sur 0 -- -- 65
2021-02-10 11:00:00 17.2 8 Sur 15 Sudeste 0 -- -- 67
2021-02-10 10:00:00 17.2 5 Sur 8 Sur 0 -- -- 66
2021-02-10 09:00:00 15.7 4 Sur 18 Norte 0 -- -- 69
2021-02-10 08:00:00 11 18 Norte 20 Norte 0 -- -- 80
2021-02-10 07:00:00 11.5 14 Nordeste 19 Norte 0 -- -- 75
2021-02-10 06:00:00 11.2 11 Nordeste 17 Nordeste 0 -- -- 74
2021-02-10 05:00:00 11.5 13 Nordeste 19 Nordeste 0 -- -- 72
2021-02-10 04:00:00 11 12 Nordeste 18 Norte 0 -- -- 74
2021-02-10 03:00:00 10.7 11 Norte 17 Norte 0 -- -- 72
2021-02-10 02:00:00 10.7 15 Norte 19 Norte 0 -- -- 68
2021-02-10 01:00:00 10.8 14 Norte 18 Norte 0 -- -- 82
2021-02-10 00:00:00 11 15 Norte 17 Norte 0 -- -- 81
2021-02-09 23:00:00 11.5 13 Norte 15 Norte 0 -- -- 77
2021-02-09 22:00:00 11.5 8 Norte 14 Norte 0 -- -- 82
2021-02-09 21:00:00 12.2 10 Norte 14 Norte 0 -- -- 82
2021-02-09 20:00:00 13 8 Norte 12 Norte 0 -- -- 83
2021-02-09 19:00:00 13.7 3 Norte 5 Norte 0 -- -- 85
2021-02-09 18:00:00 15.6 4 Sudoeste 8 Sudoeste 0 -- -- 75
2021-02-09 17:00:00 15.8 3 Sur 12 Sudeste 0 -- -- 74
2021-02-09 16:00:00 16 10 Este 15 Sudeste 0 -- -- 74
2021-02-09 15:00:00 16.9 7 Sur 19 Sur 0 -- -- 70
2021-02-09 14:00:00 17.2 7 Sudeste 17 Sur 0 -- -- 70
2021-02-09 13:00:00 17.5 9 Sur 18 Sudeste 0 -- -- 66
2021-02-09 12:00:00 16.6 9 Sudeste 17 Sur 0 -- -- 69
2021-02-09 11:00:00 17.1 8 Sudoeste 17 Sudoeste 0 -- -- 67
2021-02-09 10:00:00 16 4 Sudeste 17 Sur 0 -- -- 70
2021-02-09 09:00:00 13.5 4 Este 14 Sudeste 0 -- -- 78
2021-02-09 08:00:00 11.8 7 Nordeste 21 Este 0 -- -- 84
2021-02-09 07:00:00 12.2 9 Este 19 Este 0 -- -- 84
2021-02-09 06:00:00 12.2 12 Este 19 Este 0 -- -- 83
2021-02-09 05:00:00 12.1 10 Este 18 Sudeste 0 -- -- 84
2021-02-09 04:00:00 12 8 Este 18 Este 0 -- -- 83
2021-02-09 03:00:00 12.1 9 Este 15 Nordeste 0 -- -- 83
2021-02-09 02:00:00 11 12 Nordeste 18 Norte 0 -- -- 87
2021-02-09 01:00:00 12 11 Norte 17 Norte 0 -- -- 83
2021-02-09 00:00:00 12.1 13 Norte 17 Norte 0 -- -- 81
2021-02-08 23:00:00 13 13 Norte 16 Norte 0 -- -- 79
2021-02-08 22:00:00 13.1 9 Norte 13 Norte 0 -- -- 81
2021-02-08 21:00:00 13.6 4 Norte 8 Norte 0 -- -- 81
2021-02-08 20:00:00 14 0 Calma 6 Sudoeste 0 -- -- 89
2021-02-08 19:00:00 14.1 3 Sur 9 Sudeste 0 -- -- 88
2021-02-08 18:00:00 14.5 4 Sur 9 Sur 0 -- -- 86
2021-02-08 17:00:00 14.9 6 Sur 10 Sudeste 0 -- -- 83
2021-02-08 16:00:00 15.1 6 Sur 12 Sur 0 -- -- 78
2021-02-08 15:00:00 15.7 6 Sudoeste 12 Sur 0 -- -- 76
2021-02-08 14:00:00 15.7 7 Sur 15 Sudeste 0 -- -- 76
2021-02-08 13:00:00 16.4 7 Sur 13 Sur 0 -- -- 72
2021-02-08 12:00:00 15.8 6 Sudeste 16 Sudeste 0 -- -- 71
2021-02-08 11:00:00 16.7 5 Sur 14 Sudoeste 0 -- -- 71
2021-02-08 10:00:00 15.8 6 Sur 11 Sur 0 -- -- 73
2021-02-08 09:00:00 13.8 3 Sudeste 16 Nordeste 0 -- -- 78
2021-02-08 08:00:00 10.9 12 Nordeste 15 Nordeste 0 -- -- 86
2021-02-08 07:00:00 10.1 11 Norte 14 Norte 0 -- -- 90
2021-02-08 06:00:00 9.1 10 Norte 13 Norte 0 -- -- 90
2021-02-08 05:00:00 9.7 8 Norte 11 Norte 0 -- -- 89
2021-02-08 04:00:00 9.6 9 Norte 13 Norte 0 -- -- 89
2021-02-08 03:00:00 10 8 Norte 14 Norte 0 -- -- 88
2021-02-08 02:00:00 10.6 5 Norte 13 Norte 0 -- -- 87
2021-02-08 01:00:00 11.1 4 Nordeste 17 Este 0 -- -- 84
2021-02-08 00:00:00 12.2 11 Este 15 Nordeste 0 -- -- 86
2021-02-07 23:00:00 11.6 9 Nordeste 13 Nordeste 0 -- -- 87
2021-02-07 22:00:00 11.7 9 Nordeste 17 Nordeste 0 -- -- 86
2021-02-07 21:00:00 11.9 10 Nordeste 15 Nordeste 0 -- -- 87
2021-02-07 20:00:00 12.1 8 Norte 12 Norte 0 -- -- 87
2021-02-07 19:00:00 13.5 6 Noroeste 11 Sudoeste 0 -- -- 85
2021-02-07 18:00:00 14.6 6 Sudoeste 10 Oeste 0 -- -- 80
2021-02-07 17:00:00 14.9 7 Oeste 17 Oeste 0 -- -- 77
2021-02-07 16:00:00 15.1 8 Sudoeste 14 Sudoeste 0 -- -- 77
2021-02-07 15:00:00 14.9 8 Sur 19 Sur 0 -- -- 77
2021-02-07 14:00:00 15.9 8 Sur 18 Sudeste 0 -- -- 67
2021-02-07 13:00:00 16.2 11 Sur 21 Sur 0 -- -- 65
2021-02-07 12:00:00 16.6 6 Sudoeste 16 Sudoeste 0 -- -- 63
2021-02-07 11:00:00 16.9 8 Sudoeste 15 Sur 0 -- -- 62
2021-02-07 10:00:00 16.3 6 Sur 12 Sudeste 0 -- -- 61
2021-02-07 09:00:00 14.5 3 Sudeste 19 Nordeste 0 -- -- 67
2021-02-07 08:00:00 10.4 16 Nordeste 21 Nordeste 0 -- -- 73
2021-02-07 07:00:00 10.5 14 Nordeste 19 Nordeste 0 -- -- 70
2021-02-07 06:00:00 10.1 13 Nordeste 17 Nordeste 0 -- -- 70
2021-02-07 05:00:00 10.3 12 Nordeste 17 Nordeste 0 -- -- 74
2021-02-07 04:00:00 10.3 12 Nordeste 20 Norte 0 -- -- 75
2021-02-07 03:00:00 9.7 14 Norte 18 Norte 0 -- -- 79
2021-02-07 02:00:00 10.4 11 Nordeste 18 Nordeste 0 -- -- 71
2021-02-07 01:00:00 10.4 5 Nordeste 17 Sudoeste 0 -- -- 78
2021-02-07 00:00:00 12.5 11 Oeste 35 Norte 0 -- -- 72
2021-02-06 23:00:00 12.1 8 Norte 26 Noroeste 0 -- -- 71
2021-02-06 22:00:00 13 19 Norte 32 Norte 0 -- -- 61
2021-02-06 21:00:00 13.1 11 Norte 31 Noroeste 0 -- -- 62
2021-02-06 20:00:00 13.1 9 Noroeste 23 Norte 0 -- -- 65
2021-02-06 19:00:00 13.6 10 Noroeste 22 Norte 0 -- -- 65
2021-02-06 18:00:00 14 11 Noroeste 33 Norte 0 -- -- 64
2021-02-06 17:00:00 15.5 12 Norte 35 Norte 0 -- -- 57
2021-02-06 16:00:00 15.2 8 Oeste 43 Norte 0 -- -- 59
2021-02-06 15:00:00 15.7 9 Noroeste 27 Sur 0 -- -- 53
2021-02-06 14:00:00 14.6 22 Noroeste 52 Noroeste 0 -- -- 60
2021-02-06 13:00:00 14.1 15 Noroeste 42 Norte 0 -- -- 61
2021-02-06 12:00:00 13.6 12 Oeste 36 Norte 0 -- -- 59
2021-02-06 11:00:00 12.4 13 Noroeste 45 Noroeste 0 -- -- 69
2021-02-06 10:00:00 12.4 13 Noroeste 40 Noroeste 0 -- -- 67
2021-02-06 09:00:00 11.5 13 Norte 40 Norte 0 -- -- 72
2021-02-06 08:00:00 10.5 15 Noroeste 53 Norte 0.2 -- -- 72
2021-02-06 07:00:00 10.6 22 Norte 48 Nordeste 0.2 -- -- 73
2021-02-06 06:00:00 11.5 29 Norte 55 Norte 0 -- -- 66
2021-02-06 05:00:00 10.8 26 Nordeste 53 Norte 0.4 -- -- 70
2021-02-06 04:00:00 10.8 13 Norte 46 Norte 0 -- -- 63
2021-02-06 03:00:00 10.5 15 Norte 41 Nordeste 0 -- -- 67
2021-02-06 02:00:00 9.3 12 Nordeste 57 Norte 1.2 -- -- 78
2021-02-06 01:00:00 9.8 33 Norte 54 Nordeste 1 -- -- 75
2021-02-06 00:00:00 9.9 28 Nordeste 67 Nordeste 2.2 -- -- 72
2021-02-05 23:00:00 9.6 19 Nordeste 43 Norte 1.4 -- -- 80
2021-02-05 22:00:00 9.7 22 Este 55 Norte 2.2 -- -- 77
2021-02-05 21:00:00 9.1 9 Norte 38 Nordeste 3.2 -- -- 81
2021-02-05 20:00:00 9.3 8 Sur 42 Norte 1.8 -- -- 83
2021-02-05 19:00:00 9 8 Oeste 47 Este 6 -- -- 87
2021-02-05 18:00:00 10.4 29 Nordeste 51 Norte 2.2 -- -- 73
2021-02-05 17:00:00 11.8 20 Este 55 Norte 0 -- -- 74
2021-02-05 16:00:00 10.8 19 Nordeste 51 Nordeste 0.2 -- -- 75
2021-02-05 15:00:00 10.6 12 Nordeste 41 Norte 0.4 -- -- 78
2021-02-05 14:00:00 9.8 18 Nordeste 42 Norte 1.2 -- -- 80
2021-02-05 13:00:00 8.9 23 Norte 37 Norte 2.4 -- -- 82
2021-02-05 12:00:00 11.2 12 Noroeste 32 Norte 1.4 -- -- 75
2021-02-05 11:00:00 10.6 6 Nordeste 37 Norte 0.6 -- -- 78
2021-02-05 10:00:00 10.9 15 Norte 36 Oeste 0.2 -- -- 71
2021-02-05 09:00:00 10 8 Noroeste 53 Norte 0 -- -- 70
2021-02-05 08:00:00 9.9 17 Noroeste 42 Norte 0 -- -- 69
2021-02-05 07:00:00 9.7 12 Noroeste 45 Noroeste 0.2 -- -- 68
2021-02-05 06:00:00 8.8 12 Noroeste 27 Norte 0.2 -- -- 76
2021-02-05 05:00:00 8.5 16 Norte 41 Norte 1.6 -- -- 79
2021-02-05 04:00:00 10.1 9 Norte 32 Norte 0 -- -- 67
2021-02-05 03:00:00 10.6 10 Norte 36 Noroeste 0 -- -- 61
2021-02-05 02:00:00 9.8 14 Noroeste 36 Norte 0 -- -- 70
2021-02-05 01:00:00 9 17 Este 62 Norte 2.8 -- -- 81
2021-02-05 00:00:00 9.8 19 Norte 52 Norte 0.4 -- -- 74
2021-02-04 23:00:00 9.6 13 Noroeste 70 Norte 0.8 -- -- 73
2021-02-04 22:00:00 9.6 41 Norte 67 Norte 2 -- -- 76
2021-02-04 21:00:00 10.8 22 Norte 51 Norte 1 -- -- 73
2021-02-04 20:00:00 10.9 28 Norte 54 Norte 1.2 -- -- 70
2021-02-04 19:00:00 11.2 28 Noroeste 51 Norte 1.2 -- -- 69
2021-02-04 18:00:00 11.6 27 Norte 53 Norte 1.2 -- -- 70
2021-02-04 17:00:00 11.2 19 Norte 44 Noroeste 2.6 -- -- 74
2021-02-04 16:00:00 12 30 Norte 58 Noroeste 1.2 -- -- 70
2021-02-04 15:00:00 13 34 Norte 73 Nordeste 1.8 -- -- 74
2021-02-04 14:00:00 12.8 46 Norte 68 Norte 2.2 -- -- 79
2021-02-04 13:00:00 12.4 22 Norte 42 Norte 1.2 -- -- 76
2021-02-04 12:00:00 15.5 19 Oeste 34 Norte 0 -- -- 82
2021-02-04 11:00:00 15 11 Noroeste 22 Oeste 0 -- -- 71
2021-02-04 10:00:00 14.4 13 Oeste 37 Norte 0 -- -- 78
2021-02-04 09:00:00 13.4 8 Norte 14 Norte 0 -- -- 84
2021-02-04 08:00:00 12.7 9 Noroeste 21 Norte 0 -- -- 79
2021-02-04 07:00:00 12.7 6 Nordeste 9 Norte 0 -- -- 90
2021-02-04 06:00:00 12.5 4 Nordeste 9 Norte 0 -- -- 88
2021-02-04 05:00:00 12.7 2 Este 13 Norte 0 -- -- 85
2021-02-04 04:00:00 11.7 6 Nordeste 13 Norte 0 -- -- 84
2021-02-04 03:00:00 12.1 7 Nordeste 14 Nordeste 0 -- -- 84
2021-02-04 02:00:00 12.3 6 Nordeste 14 Nordeste 0 -- -- 84
2021-02-04 01:00:00 12.2 9 Norte 13 Norte 0 -- -- 84
2021-02-04 00:00:00 13 7 Norte 13 Nordeste 0 -- -- 83
2021-02-03 23:00:00 12.4 9 Norte 14 Norte 0 -- -- 83
2021-02-03 22:00:00 14.2 9 Norte 14 Norte 0 -- -- 78
2021-02-03 21:00:00 14.4 8 Noroeste 13 Noroeste 0 -- -- 80
2021-02-03 20:00:00 14.3 4 Noroeste 9 Oeste 0 -- -- 84
2021-02-03 19:00:00 14.3 5 Oeste 12 Sudoeste 0 -- -- 87
2021-02-03 18:00:00 14.5 5 Sudoeste 12 Sudoeste 0 -- -- 85
2021-02-03 17:00:00 14.9 8 Sudoeste 13 Sudoeste 0 -- -- 83
2021-02-03 16:00:00 15.1 5 Sudoeste 10 Sur 0 -- -- 83
2021-02-03 15:00:00 15.1 5 Sudeste 12 Sudeste 0 -- -- 82
2021-02-03 14:00:00 14.9 6 Sudeste 13 Sur 0 -- -- 83
2021-02-03 13:00:00 15.4 7 Sudeste 14 Sur 0 -- -- 81
2021-02-03 12:00:00 15.8 3 Sudoeste 12 Sudeste 0 -- -- 79
2021-02-03 11:00:00 15.6 6 Sur 15 Sur 0 -- -- 79
2021-02-03 10:00:00 15.8 9 Sudoeste 19 Sudoeste 0 -- -- 79
2021-02-03 09:00:00 13.9 4 Noroeste 13 Noroeste 0 -- -- 86
2021-02-03 08:00:00 12.2 7 Noroeste 12 Noroeste 0 -- -- 92
2021-02-03 07:00:00 10.6 7 Noroeste 9 Norte 0 -- -- 89
2021-02-03 06:00:00 11.5 3 Noroeste 18 Noroeste 0 -- -- 84
2021-02-03 05:00:00 11.1 7 Noroeste 13 Norte 0 -- -- 91
2021-02-03 04:00:00 12.6 7 Nordeste 10 Nordeste 0 -- -- 92
2021-02-03 03:00:00 11.6 7 Norte 9 Norte 0 -- -- 93
2021-02-03 02:00:00 12.1 5 Norte 10 Norte 0 -- -- 91
2021-02-03 01:00:00 12.6 10 Norte 15 Norte 0 -- -- 91
2021-02-03 00:00:00 13.2 6 Noroeste 12 Norte 0 -- -- 90
2021-02-02 23:00:00 14 4 Noroeste 10 Nordeste 0 -- -- 89
2021-02-02 22:00:00 14.3 2 Norte 8 Sudoeste 0 -- -- 90
2021-02-02 21:00:00 14.6 4 Norte 8 Sur 0 -- -- 89
2021-02-02 20:00:00 14.5 4 Sudeste 10 Sudeste 0 -- -- 91
2021-02-02 19:00:00 14.8 5 Sudeste 11 Sudeste 0 -- -- 91
2021-02-02 18:00:00 15.3 7 Sudeste 13 Sudeste 0 -- -- 88
2021-02-02 17:00:00 16.3 7 Sudeste 14 Sudeste 0 -- -- 84
2021-02-02 16:00:00 16.8 10 Sudeste 18 Sur 0 -- -- 80
2021-02-02 15:00:00 17.3 9 Sudeste 17 Sudeste 0 -- -- 80
2021-02-02 14:00:00 17.5 10 Sudeste 18 Sudeste 0 -- -- 80
2021-02-02 13:00:00 17.1 9 Sudeste 18 Sudeste 0 -- -- 79
2021-02-02 12:00:00 17.4 9 Sudeste 16 Sudeste 0 -- -- 80
2021-02-02 11:00:00 17.6 9 Sudeste 15 Sudeste 0 -- -- 79
2021-02-02 10:00:00 16.9 6 Sur 14 Sudeste 0 -- -- 81
2021-02-02 09:00:00 15.1 4 Sudeste 9 Norte 0 -- -- 87
2021-02-02 08:00:00 12.1 3 Oeste 12 Norte 0 -- -- 89
2021-02-02 07:00:00 12.3 0 Calma 15 Norte 0 -- -- 88
2021-02-02 06:00:00 12.3 5 Noroeste 14 Norte 0 -- -- 85
2021-02-02 05:00:00 12 0 Calma 6 Noroeste 0 -- -- 74
2021-02-02 04:00:00 12.3 3 Noroeste 8 Noroeste 0 -- -- 91
2021-02-02 03:00:00 12.8 7 Noroeste 10 Norte 0 -- -- 85
2021-02-02 02:00:00 13.4 6 Noroeste 11 Noroeste 0 -- -- 90
2021-02-02 01:00:00 13.4 7 Noroeste 9 Noroeste 0 -- -- 86
2021-02-02 00:00:00 14 3 Oeste 9 Norte 0 -- -- 72
2021-02-01 23:00:00 14.9 4 Norte 13 Norte 0 -- -- 48
2021-02-01 22:00:00 16.1 5 Nordeste 15 Norte 0 -- -- 50
2021-02-01 21:00:00 16.2 8 Nordeste 13 Nordeste 0 -- -- 50
2021-02-01 20:00:00 16.6 8 Norte 12 Norte 0 -- -- 51
2021-02-01 19:00:00 17.8 3 Nordeste 10 Norte 0 -- -- 64
2021-02-01 18:00:00 19 0 Calma 7 Sudeste 0 -- -- 62
2021-02-01 17:00:00 20.2 4 Este 12 Sudeste 0 -- -- 60
2021-02-01 16:00:00 20.3 5 Sudeste 14 Sudeste 0 -- -- 58
2021-02-01 15:00:00 20.1 9 Sur 17 Sudeste 0 -- -- 62
2021-02-01 14:00:00 20.4 11 Sudeste 18 Sudeste 0 -- -- 64
2021-02-01 13:00:00 20.6 6 Sudeste 15 Sudeste 0 -- -- 62
2021-02-01 12:00:00 20.8 9 Sudeste 15 Sudeste 0 -- -- 66
2021-02-01 11:00:00 19.2 9 Sudeste 16 Sudeste 0 -- -- 75
2021-02-01 10:00:00 20.2 3 Sudeste 9 Este 0 -- -- 54
2021-02-01 09:00:00 19.6 2 Este 9 Norte 0 -- -- 47
2021-02-01 08:00:00 17.2 3 Norte 22 Sudeste 0 -- -- 51
2021-02-01 07:00:00 17.2 9 Este 18 Sudeste 0 -- -- 51
2021-02-01 06:00:00 17.2 9 Este 16 Este 0 -- -- 49
2021-02-01 05:00:00 16.9 6 Nordeste 15 Norte 0 -- -- 50
2021-02-01 04:00:00 17.3 8 Nordeste 24 Este 0 -- -- 49
2021-02-01 03:00:00 18.8 12 Este 23 Sudeste 0 -- -- 47
2021-02-01 02:00:00 18.7 12 Sudeste 23 Sudeste 0 -- -- 48
2021-02-01 01:00:00 19.3 12 Este 30 Sudeste 0 -- -- 47
2021-02-01 00:00:00 20 13 Este 31 Sudeste 0 -- -- 44
2021-01-31 23:00:00 17.9 8 Nordeste 19 Nordeste 0 -- -- 48
2021-01-31 22:00:00 17.7 5 Nordeste 10 Sudeste 0 -- -- 50
2021-01-31 21:00:00 18.5 4 Este 17 Este 0 -- -- 48
2021-01-31 20:00:00 19.6 5 Este 16 Este 0 -- -- 45
2021-01-31 19:00:00 19 4 Este 14 Este 0 -- -- 50
2021-01-31 18:00:00 21.1 10 Este 27 Este 0 -- -- 55
2021-01-31 17:00:00 20.7 7 Este 19 Este 0 -- -- 56
2021-01-31 16:00:00 19.9 5 Sudeste 15 Sur 0 -- -- 66
2021-01-31 15:00:00 19.8 10 Sudeste 15 Sudeste 0 -- -- 65
2021-01-31 14:00:00 19.5 7 Sur 18 Sudeste 0 -- -- 66
2021-01-31 13:00:00 19.9 7 Sudeste 18 Sur 0 -- -- 64
2021-01-31 12:00:00 19.4 10 Sudeste 17 Sur 0 -- -- 67
2021-01-31 11:00:00 18.8 8 Sudeste 15 Sur 0 -- -- 71
2021-01-31 10:00:00 18.3 5 Sudoeste 11 Oeste 0 -- -- 73
2021-01-31 09:00:00 16 3 Sudoeste 14 Noroeste 0 -- -- 79
2021-01-31 08:00:00 13.1 12 Noroeste 16 Noroeste 0 -- -- 92
2021-01-31 07:00:00 11.9 7 Noroeste 12 Noroeste 0 -- -- 84
2021-01-31 06:00:00 13.5 13 Noroeste 18 Noroeste 0 -- -- 82
2021-01-31 05:00:00 13.1 9 Noroeste 13 Noroeste 0 -- -- 81
2021-01-31 04:00:00 11.8 6 Noroeste 12 Norte 0 -- -- 85
2021-01-31 03:00:00 11.5 5 Norte 15 Noroeste 0 -- -- 79
2021-01-31 02:00:00 12.4 12 Noroeste 15 Noroeste 0 -- -- 83
2021-01-31 01:00:00 12.2 6 Noroeste 10 Noroeste 0 -- -- 78
2021-01-31 00:00:00 13.1 8 Noroeste 11 Noroeste 0 -- -- 77
2021-01-30 23:00:00 12.7 9 Noroeste 12 Noroeste 0 -- -- 87
2021-01-30 22:00:00 12.9 6 Noroeste 13 Noroeste 0 -- -- 91
2021-01-30 21:00:00 13.7 9 Noroeste 14 Noroeste 0 -- -- 91
2021-01-30 20:00:00 13.7 4 Noroeste 10 Norte 0 -- -- 89
2021-01-30 19:00:00 14.8 2 Sudoeste 10 Sudeste 0 -- -- 86
2021-01-30 18:00:00 15.7 4 Sudeste 13 Sudeste 0 -- -- 83
2021-01-30 17:00:00 16.8 4 Sudeste 20 Sudeste 0 -- -- 78
2021-01-30 16:00:00 17.6 11 Sudeste 21 Sudeste 0 -- -- 75
2021-01-30 15:00:00 18.2 5 Sudeste 19 Sur 0 -- -- 73
2021-01-30 14:00:00 17.9 11 Sur 22 Sudeste 0 -- -- 75
2021-01-30 13:00:00 18.7 13 Sudeste 21 Sudeste 0 -- -- 72
2021-01-30 12:00:00 19.9 12 Sudoeste 20 Sudoeste 0 -- -- 67
2021-01-30 11:00:00 19.3 8 Sudoeste 14 Sudoeste 0 -- -- 68
2021-01-30 10:00:00 17.7 9 Oeste 15 Oeste 0 -- -- 73
2021-01-30 09:00:00 15.9 4 Noroeste 15 Noroeste 0 -- -- 77
2021-01-30 08:00:00 12.1 9 Noroeste 13 Noroeste 0 -- -- 88
2021-01-30 07:00:00 13.1 6 Noroeste 14 Noroeste 0 -- -- 93
2021-01-30 06:00:00 13.1 9 Noroeste 17 Noroeste 0 -- -- 90
2021-01-30 05:00:00 14.1 13 Noroeste 21 Noroeste 0 -- -- 87
2021-01-30 04:00:00 13.1 4 Noroeste 15 Norte 0 -- -- 58
2021-01-30 03:00:00 13.9 4 Noroeste 10 Noroeste 0 -- -- 72
2021-01-30 02:00:00 15.3 4 Este 14 Noroeste 0 -- -- 58
2021-01-30 01:00:00 17.1 5 Nordeste 16 Noroeste 0 -- -- 37
2021-01-30 00:00:00 16 5 Noroeste 12 Norte 0 -- -- 44